sensor_id;sensor_type;location;lat;lon;timestamp;P1;durP1;ratioP1;P2;durP2;ratioP2
61572;SDS011;47465;43.094;12.434;2023-04-24T00:02:11;6.43;;;3.58;;
61572;SDS011;47465;43.094;12.434;2023-04-24T00:04:39;9.40;;;3.58;;
61572;SDS011;47465;43.094;12.434;2023-04-24T00:07:06;6.82;;;3.50;;
61572;SDS011;47465;43.094;12.434;2023-04-24T00:09:32;5.90;;;4.15;;
61572;SDS011;47465;43.094;12.434;2023-04-24T00:11:58;7.18;;;3.67;;
61572;SDS011;47465;43.094;12.434;2023-04-24T00:14:25;9.13;;;4.25;;
61572;SDS011;47465;43.094;12.434;2023-04-24T00:16:50;8.15;;;3.70;;
61572;SDS011;47465;43.094;12.434;2023-04-24T00:19:16;7.07;;;3.72;;
61572;SDS011;47465;43.094;12.434;2023-04-24T00:21:44;7.78;;;3.60;;
61572;SDS011;47465;43.094;12.434;2023-04-24T00:24:10;10.52;;;3.70;;
61572;SDS011;47465;43.094;12.434;2023-04-24T00:26:36;7.50;;;3.63;;
61572;SDS011;47465;43.094;12.434;2023-04-24T00:29:02;8.20;;;3.58;;
61572;SDS011;47465;43.094;12.434;2023-04-24T00:31:28;9.20;;;4.40;;
61572;SDS011;47465;43.094;12.434;2023-04-24T00:33:55;8.32;;;3.83;;
61572;SDS011;47465;43.094;12.434;2023-04-24T00:36:21;8.20;;;4.05;;
61572;SDS011;47465;43.094;12.434;2023-04-24T00:38:48;8.68;;;4.45;;
61572;SDS011;47465;43.094;12.434;2023-04-24T00:41:14;9.18;;;4.88;;
61572;SDS011;47465;43.094;12.434;2023-04-24T00:43:40;9.40;;;4.97;;
61572;SDS011;47465;43.094;12.434;2023-04-24T00:46:06;9.13;;;3.78;;
61572;SDS011;47465;43.094;12.434;2023-04-24T00:48:32;9.98;;;4.35;;
61572;SDS011;47465;43.094;12.434;2023-04-24T00:50:59;9.68;;;4.10;;
61572;SDS011;47465;43.094;12.434;2023-04-24T00:53:25;7.80;;;4.22;;
61572;SDS011;47465;43.094;12.434;2023-04-24T00:55:52;8.77;;;4.20;;
61572;SDS011;47465;43.094;12.434;2023-04-24T00:58:18;9.38;;;4.20;;
61572;SDS011;47465;43.094;12.434;2023-04-24T01:00:45;9.10;;;4.60;;
61572;SDS011;47465;43.094;12.434;2023-04-24T01:03:11;11.13;;;4.72;;
61572;SDS011;47465;43.094;12.434;2023-04-24T01:05:39;9.40;;;4.35;;
61572;SDS011;47465;43.094;12.434;2023-04-24T01:08:07;9.13;;;4.70;;
61572;SDS011;47465;43.094;12.434;2023-04-24T01:10:33;8.10;;;4.20;;
61572;SDS011;47465;43.094;12.434;2023-04-24T01:13:03;9.93;;;4.63;;
61572;SDS011;47465;43.094;12.434;2023-04-24T01:15:29;8.38;;;4.68;;
61572;SDS011;47465;43.094;12.434;2023-04-24T01:17:55;9.23;;;4.63;;
61572;SDS011;47465;43.094;12.434;2023-04-24T01:20:21;7.32;;;4.35;;
61572;SDS011;47465;43.094;12.434;2023-04-24T01:22:49;9.82;;;4.50;;
61572;SDS011;47465;43.094;12.434;2023-04-24T01:25:15;9.02;;;4.57;;
61572;SDS011;47465;43.094;12.434;2023-04-24T01:27:41;11.27;;;5.07;;
61572;SDS011;47465;43.094;12.434;2023-04-24T01:30:07;11.40;;;5.18;;
61572;SDS011;47465;43.094;12.434;2023-04-24T01:32:34;8.82;;;4.70;;
61572;SDS011;47465;43.094;12.434;2023-04-24T01:35:01;13.02;;;5.35;;
61572;SDS011;47465;43.094;12.434;2023-04-24T01:37:28;13.80;;;5.22;;
61572;SDS011;47465;43.094;12.434;2023-04-24T01:39:55;10.95;;;5.53;;
61572;SDS011;47465;43.094;12.434;2023-04-24T01:42:21;14.90;;;5.68;;
61572;SDS011;47465;43.094;12.434;2023-04-24T01:44:47;10.52;;;5.90;;
61572;SDS011;47465;43.094;12.434;2023-04-24T01:47:14;13.10;;;5.60;;
61572;SDS011;47465;43.094;12.434;2023-04-24T01:49:40;11.30;;;5.18;;
61572;SDS011;47465;43.094;12.434;2023-04-24T01:52:06;10.93;;;5.65;;
61572;SDS011;47465;43.094;12.434;2023-04-24T01:54:32;11.77;;;5.90;;
61572;SDS011;47465;43.094;12.434;2023-04-24T01:57:00;11.50;;;5.30;;
61572;SDS011;47465;43.094;12.434;2023-04-24T01:59:27;12.85;;;6.03;;
61572;SDS011;47465;43.094;12.434;2023-04-24T02:01:54;10.35;;;4.82;;
61572;SDS011;47465;43.094;12.434;2023-04-24T02:04:19;14.88;;;6.07;;
61572;SDS011;47465;43.094;12.434;2023-04-24T02:06:45;13.77;;;6.13;;
61572;SDS011;47465;43.094;12.434;2023-04-24T02:09:11;12.95;;;5.72;;
61572;SDS011;47465;43.094;12.434;2023-04-24T02:11:37;15.50;;;6.68;;
61572;SDS011;47465;43.094;12.434;2023-04-24T02:14:04;17.98;;;5.95;;
61572;SDS011;47465;43.094;12.434;2023-04-24T02:16:30;12.95;;;5.72;;
61572;SDS011;47465;43.094;12.434;2023-04-24T02:18:58;17.92;;;6.47;;
61572;SDS011;47465;43.094;12.434;2023-04-24T02:21:23;9.40;;;5.13;;
61572;SDS011;47465;43.094;12.434;2023-04-24T02:23:50;13.23;;;5.95;;
61572;SDS011;47465;43.094;12.434;2023-04-24T02:26:16;14.82;;;6.63;;
61572;SDS011;47465;43.094;12.434;2023-04-24T02:28:43;15.05;;;5.55;;
61572;SDS011;47465;43.094;12.434;2023-04-24T02:31:11;15.18;;;6.25;;
61572;SDS011;47465;43.094;12.434;2023-04-24T02:33:36;16.42;;;6.00;;
61572;SDS011;47465;43.094;12.434;2023-04-24T02:36:02;19.92;;;6.25;;
61572;SDS011;47465;43.094;12.434;2023-04-24T02:38:28;12.77;;;5.55;;
61572;SDS011;47465;43.094;12.434;2023-04-24T02:40:54;16.75;;;5.85;;
61572;SDS011;47465;43.094;12.434;2023-04-24T02:43:21;14.48;;;6.57;;
61572;SDS011;47465;43.094;12.434;2023-04-24T02:45:46;20.58;;;6.35;;
61572;SDS011;47465;43.094;12.434;2023-04-24T02:48:14;19.85;;;6.32;;
61572;SDS011;47465;43.094;12.434;2023-04-24T02:50:40;21.40;;;6.20;;
61572;SDS011;47465;43.094;12.434;2023-04-24T02:53:06;17.33;;;6.38;;
61572;SDS011;47465;43.094;12.434;2023-04-24T02:55:32;11.85;;;5.95;;
61572;SDS011;47465;43.094;12.434;2023-04-24T02:57:58;14.95;;;6.13;;
61572;SDS011;47465;43.094;12.434;2023-04-24T03:00:23;17.38;;;6.45;;
61572;SDS011;47465;43.094;12.434;2023-04-24T03:02:49;12.95;;;6.10;;
61572;SDS011;47465;43.094;12.434;2023-04-24T03:05:17;14.15;;;6.20;;
61572;SDS011;47465;43.094;12.434;2023-04-24T03:07:43;15.02;;;6.30;;
61572;SDS011;47465;43.094;12.434;2023-04-24T03:10:09;15.38;;;6.43;;
61572;SDS011;47465;43.094;12.434;2023-04-24T03:12:35;17.45;;;6.53;;
61572;SDS011;47465;43.094;12.434;2023-04-24T03:15:01;16.42;;;6.30;;
61572;SDS011;47465;43.094;12.434;2023-04-24T03:17:27;19.02;;;6.18;;
61572;SDS011;47465;43.094;12.434;2023-04-24T03:19:53;21.30;;;7.05;;
61572;SDS011;47465;43.094;12.434;2023-04-24T03:22:20;18.00;;;6.60;;
61572;SDS011;47465;43.094;12.434;2023-04-24T03:24:46;13.85;;;6.93;;
61572;SDS011;47465;43.094;12.434;2023-04-24T03:27:12;16.60;;;6.03;;
61572;SDS011;47465;43.094;12.434;2023-04-24T03:29:37;15.55;;;6.40;;
61572;SDS011;47465;43.094;12.434;2023-04-24T03:32:03;19.67;;;6.32;;
61572;SDS011;47465;43.094;12.434;2023-04-24T03:34:29;17.35;;;6.72;;
61572;SDS011;47465;43.094;12.434;2023-04-24T03:36:55;14.20;;;6.55;;
61572;SDS011;47465;43.094;12.434;2023-04-24T03:39:22;18.73;;;6.82;;
61572;SDS011;47465;43.094;12.434;2023-04-24T03:41:49;19.60;;;7.07;;
61572;SDS011;47465;43.094;12.434;2023-04-24T03:44:15;15.88;;;6.45;;
61572;SDS011;47465;43.094;12.434;2023-04-24T03:46:41;14.38;;;5.97;;
61572;SDS011;47465;43.094;12.434;2023-04-24T03:49:07;13.43;;;5.95;;
61572;SDS011;47465;43.094;12.434;2023-04-24T03:51:33;15.32;;;6.70;;
61572;SDS011;47465;43.094;12.434;2023-04-24T03:53:59;18.55;;;7.05;;
61572;SDS011;47465;43.094;12.434;2023-04-24T03:56:26;12.13;;;6.00;;
61572;SDS011;47465;43.094;12.434;2023-04-24T03:58:52;15.25;;;5.57;;
61572;SDS011;47465;43.094;12.434;2023-04-24T04:01:18;16.98;;;6.63;;
61572;SDS011;47465;43.094;12.434;2023-04-24T04:03:45;12.80;;;5.90;;
61572;SDS011;47465;43.094;12.434;2023-04-24T04:06:11;16.85;;;6.72;;
61572;SDS011;47465;43.094;12.434;2023-04-24T04:08:38;13.95;;;6.07;;
61572;SDS011;47465;43.094;12.434;2023-04-24T04:11:04;16.00;;;6.35;;
61572;SDS011;47465;43.094;12.434;2023-04-24T04:13:31;10.68;;;5.63;;
61572;SDS011;47465;43.094;12.434;2023-04-24T04:15:57;14.10;;;5.72;;
61572;SDS011;47465;43.094;12.434;2023-04-24T04:18:23;13.18;;;5.68;;
61572;SDS011;47465;43.094;12.434;2023-04-24T04:20:48;16.73;;;6.43;;
61572;SDS011;47465;43.094;12.434;2023-04-24T04:23:14;9.65;;;5.43;;
61572;SDS011;47465;43.094;12.434;2023-04-24T04:25:40;13.93;;;6.32;;
61572;SDS011;47465;43.094;12.434;2023-04-24T04:28:06;18.25;;;6.20;;
61572;SDS011;47465;43.094;12.434;2023-04-24T04:30:34;14.82;;;5.93;;
61572;SDS011;47465;43.094;12.434;2023-04-24T04:33:00;12.63;;;4.95;;
61572;SDS011;47465;43.094;12.434;2023-04-24T04:35:26;12.85;;;5.22;;
61572;SDS011;47465;43.094;12.434;2023-04-24T04:37:52;13.02;;;5.47;;
61572;SDS011;47465;43.094;12.434;2023-04-24T04:40:18;16.17;;;5.53;;
61572;SDS011;47465;43.094;12.434;2023-04-24T04:42:44;12.40;;;5.25;;
61572;SDS011;47465;43.094;12.434;2023-04-24T04:45:11;10.57;;;5.05;;
61572;SDS011;47465;43.094;12.434;2023-04-24T04:47:38;12.98;;;5.20;;
61572;SDS011;47465;43.094;12.434;2023-04-24T04:50:05;12.65;;;6.07;;
61572;SDS011;47465;43.094;12.434;2023-04-24T04:52:31;10.00;;;5.22;;
61572;SDS011;47465;43.094;12.434;2023-04-24T04:54:57;13.05;;;6.10;;
61572;SDS011;47465;43.094;12.434;2023-04-24T04:57:23;13.63;;;5.25;;
61572;SDS011;47465;43.094;12.434;2023-04-24T04:59:49;11.50;;;5.85;;
61572;SDS011;47465;43.094;12.434;2023-04-24T05:02:14;11.52;;;4.90;;
61572;SDS011;47465;43.094;12.434;2023-04-24T05:04:42;13.77;;;5.35;;
61572;SDS011;47465;43.094;12.434;2023-04-24T05:07:08;13.18;;;5.10;;
61572;SDS011;47465;43.094;12.434;2023-04-24T05:09:34;10.60;;;5.50;;
61572;SDS011;47465;43.094;12.434;2023-04-24T05:11:59;9.77;;;5.38;;
61572;SDS011;47465;43.094;12.434;2023-04-24T05:14:27;15.25;;;5.22;;
61572;SDS011;47465;43.094;12.434;2023-04-24T05:16:53;12.25;;;5.70;;
61572;SDS011;47465;43.094;12.434;2023-04-24T05:19:18;16.88;;;6.22;;
61572;SDS011;47465;43.094;12.434;2023-04-24T05:21:47;17.77;;;6.00;;
61572;SDS011;47465;43.094;12.434;2023-04-24T05:24:13;12.65;;;5.85;;
61572;SDS011;47465;43.094;12.434;2023-04-24T05:26:39;12.75;;;6.18;;
61572;SDS011;47465;43.094;12.434;2023-04-24T05:29:05;12.35;;;6.10;;
61572;SDS011;47465;43.094;12.434;2023-04-24T05:31:31;11.85;;;4.93;;
61572;SDS011;47465;43.094;12.434;2023-04-24T05:33:57;14.45;;;5.40;;
61572;SDS011;47465;43.094;12.434;2023-04-24T05:36:23;14.65;;;5.78;;
61572;SDS011;47465;43.094;12.434;2023-04-24T05:38:50;9.75;;;5.65;;
61572;SDS011;47465;43.094;12.434;2023-04-24T05:41:16;12.38;;;5.40;;
61572;SDS011;47465;43.094;12.434;2023-04-24T05:43:42;11.75;;;6.00;;
61572;SDS011;47465;43.094;12.434;2023-04-24T05:46:08;13.63;;;6.57;;
61572;SDS011;47465;43.094;12.434;2023-04-24T05:48:34;13.95;;;6.07;;
61572;SDS011;47465;43.094;12.434;2023-04-24T05:51:00;11.18;;;5.40;;
61572;SDS011;47465;43.094;12.434;2023-04-24T05:53:26;10.10;;;5.60;;
61572;SDS011;47465;43.094;12.434;2023-04-24T05:55:53;11.73;;;5.82;;
61572;SDS011;47465;43.094;12.434;2023-04-24T05:58:19;14.93;;;7.05;;
61572;SDS011;47465;43.094;12.434;2023-04-24T06:00:45;13.80;;;6.50;;
61572;SDS011;47465;43.094;12.434;2023-04-24T06:03:12;12.45;;;6.35;;
61572;SDS011;47465;43.094;12.434;2023-04-24T06:05:37;14.55;;;6.50;;
61572;SDS011;47465;43.094;12.434;2023-04-24T06:08:03;12.07;;;6.43;;
61572;SDS011;47465;43.094;12.434;2023-04-24T06:10:29;10.20;;;6.18;;
61572;SDS011;47465;43.094;12.434;2023-04-24T06:12:57;10.63;;;5.72;;
61572;SDS011;47465;43.094;12.434;2023-04-24T06:15:26;9.82;;;5.78;;
61572;SDS011;47465;43.094;12.434;2023-04-24T06:17:54;11.02;;;6.10;;
61572;SDS011;47465;43.094;12.434;2023-04-24T06:20:20;11.13;;;5.90;;
61572;SDS011;47465;43.094;12.434;2023-04-24T06:22:46;10.50;;;5.05;;
61572;SDS011;47465;43.094;12.434;2023-04-24T06:25:12;11.15;;;4.88;;
61572;SDS011;47465;43.094;12.434;2023-04-24T06:27:37;11.48;;;4.82;;
61572;SDS011;47465;43.094;12.434;2023-04-24T06:30:06;9.48;;;4.80;;
61572;SDS011;47465;43.094;12.434;2023-04-24T06:32:33;9.88;;;5.07;;
61572;SDS011;47465;43.094;12.434;2023-04-24T06:34:59;8.70;;;4.68;;
61572;SDS011;47465;43.094;12.434;2023-04-24T06:37:25;9.00;;;4.90;;
61572;SDS011;47465;43.094;12.434;2023-04-24T06:39:51;6.68;;;4.50;;
61572;SDS011;47465;43.094;12.434;2023-04-24T06:42:17;7.20;;;3.88;;
61572;SDS011;47465;43.094;12.434;2023-04-24T06:44:45;8.27;;;4.32;;
61572;SDS011;47465;43.094;12.434;2023-04-24T06:47:13;7.45;;;3.60;;
61572;SDS011;47465;43.094;12.434;2023-04-24T06:49:41;5.60;;;3.20;;
61572;SDS011;47465;43.094;12.434;2023-04-24T06:52:07;4.68;;;3.20;;
61572;SDS011;47465;43.094;12.434;2023-04-24T06:54:33;6.13;;;3.10;;
61572;SDS011;47465;43.094;12.434;2023-04-24T06:56:59;7.28;;;3.15;;
61572;SDS011;47465;43.094;12.434;2023-04-24T06:59:27;4.70;;;3.33;;
61572;SDS011;47465;43.094;12.434;2023-04-24T07:01:54;5.22;;;3.33;;
61572;SDS011;47465;43.094;12.434;2023-04-24T07:04:21;5.15;;;3.40;;
61572;SDS011;47465;43.094;12.434;2023-04-24T07:06:47;5.75;;;3.67;;
61572;SDS011;47465;43.094;12.434;2023-04-24T07:09:16;5.88;;;3.88;;
61572;SDS011;47465;43.094;12.434;2023-04-24T07:11:43;7.00;;;4.15;;
61572;SDS011;47465;43.094;12.434;2023-04-24T07:14:10;6.70;;;4.18;;
61572;SDS011;47465;43.094;12.434;2023-04-24T07:16:36;7.15;;;4.50;;
61572;SDS011;47465;43.094;12.434;2023-04-24T07:19:02;9.25;;;4.30;;
61572;SDS011;47465;43.094;12.434;2023-04-24T07:21:29;6.85;;;4.03;;
61572;SDS011;47465;43.094;12.434;2023-04-24T07:23:56;4.73;;;3.23;;
61572;SDS011;47465;43.094;12.434;2023-04-24T07:26:22;6.63;;;3.30;;
61572;SDS011;47465;43.094;12.434;2023-04-24T07:28:48;6.93;;;3.20;;
61572;SDS011;47465;43.094;12.434;2023-04-24T07:31:14;9.18;;;3.17;;
61572;SDS011;47465;43.094;12.434;2023-04-24T07:33:40;6.53;;;3.25;;
61572;SDS011;47465;43.094;12.434;2023-04-24T07:36:06;7.00;;;3.20;;
61572;SDS011;47465;43.094;12.434;2023-04-24T07:38:34;5.45;;;3.03;;
61572;SDS011;47465;43.094;12.434;2023-04-24T07:41:00;5.45;;;2.50;;
61572;SDS011;47465;43.094;12.434;2023-04-24T07:43:26;7.55;;;3.33;;
61572;SDS011;47465;43.094;12.434;2023-04-24T07:45:52;4.90;;;2.60;;
61572;SDS011;47465;43.094;12.434;2023-04-24T07:48:19;6.57;;;2.65;;
61572;SDS011;47465;43.094;12.434;2023-04-24T07:50:47;5.13;;;2.72;;
61572;SDS011;47465;43.094;12.434;2023-04-24T07:53:13;6.20;;;2.45;;
61572;SDS011;47465;43.094;12.434;2023-04-24T07:55:40;7.07;;;3.20;;
61572;SDS011;47465;43.094;12.434;2023-04-24T07:58:06;4.72;;;2.88;;
61572;SDS011;47465;43.094;12.434;2023-04-24T08:00:32;4.53;;;3.10;;
61572;SDS011;47465;43.094;12.434;2023-04-24T08:02:58;5.22;;;3.33;;
61572;SDS011;47465;43.094;12.434;2023-04-24T08:05:24;8.20;;;4.03;;
61572;SDS011;47465;43.094;12.434;2023-04-24T08:07:52;5.22;;;3.20;;
61572;SDS011;47465;43.094;12.434;2023-04-24T08:10:18;6.93;;;3.15;;
61572;SDS011;47465;43.094;12.434;2023-04-24T08:12:45;8.13;;;3.80;;
61572;SDS011;47465;43.094;12.434;2023-04-24T08:15:11;11.00;;;5.45;;
61572;SDS011;47465;43.094;12.434;2023-04-24T08:17:37;12.85;;;6.20;;
61572;SDS011;47465;43.094;12.434;2023-04-24T08:20:04;9.80;;;5.53;;
61572;SDS011;47465;43.094;12.434;2023-04-24T08:22:31;10.40;;;5.30;;
61572;SDS011;47465;43.094;12.434;2023-04-24T08:24:57;11.20;;;6.18;;
61572;SDS011;47465;43.094;12.434;2023-04-24T08:27:25;12.30;;;5.63;;
61572;SDS011;47465;43.094;12.434;2023-04-24T08:29:54;8.63;;;4.50;;
61572;SDS011;47465;43.094;12.434;2023-04-24T08:32:20;10.88;;;5.25;;
61572;SDS011;47465;43.094;12.434;2023-04-24T08:34:46;10.40;;;4.82;;
61572;SDS011;47465;43.094;12.434;2023-04-24T08:37:13;7.18;;;4.35;;
61572;SDS011;47465;43.094;12.434;2023-04-24T08:39:39;8.38;;;4.50;;
61572;SDS011;47465;43.094;12.434;2023-04-24T08:42:05;8.05;;;4.40;;
61572;SDS011;47465;43.094;12.434;2023-04-24T08:44:33;10.63;;;4.88;;
61572;SDS011;47465;43.094;12.434;2023-04-24T08:47:03;7.93;;;3.95;;
61572;SDS011;47465;43.094;12.434;2023-04-24T08:49:29;7.40;;;4.25;;
61572;SDS011;47465;43.094;12.434;2023-04-24T08:51:56;9.35;;;4.28;;
61572;SDS011;47465;43.094;12.434;2023-04-24T08:54:22;8.38;;;4.15;;
61572;SDS011;47465;43.094;12.434;2023-04-24T08:56:48;9.52;;;4.95;;
61572;SDS011;47465;43.094;12.434;2023-04-24T08:59:15;9.63;;;5.00;;
61572;SDS011;47465;43.094;12.434;2023-04-24T09:01:41;6.65;;;4.45;;
61572;SDS011;47465;43.094;12.434;2023-04-24T09:04:11;6.55;;;4.32;;
61572;SDS011;47465;43.094;12.434;2023-04-24T09:06:40;9.45;;;4.28;;
61572;SDS011;47465;43.094;12.434;2023-04-24T09:09:07;10.07;;;4.70;;
61572;SDS011;47465;43.094;12.434;2023-04-24T09:11:39;9.80;;;4.60;;
61572;SDS011;47465;43.094;12.434;2023-04-24T09:14:05;8.50;;;4.50;;
61572;SDS011;47465;43.094;12.434;2023-04-24T09:19:00;6.57;;;4.30;;
61572;SDS011;47465;43.094;12.434;2023-04-24T09:21:30;6.68;;;4.03;;
61572;SDS011;47465;43.094;12.434;2023-04-24T09:23:58;6.03;;;3.75;;
61572;SDS011;47465;43.094;12.434;2023-04-24T09:26:25;6.88;;;4.90;;
61572;SDS011;47465;43.094;12.434;2023-04-24T09:28:53;8.00;;;4.60;;
61572;SDS011;47465;43.094;12.434;2023-04-24T09:31:19;9.35;;;4.03;;
61572;SDS011;47465;43.094;12.434;2023-04-24T09:33:53;9.83;;;4.73;;
61572;SDS011;47465;43.094;12.434;2023-04-24T09:36:20;7.20;;;3.80;;
61572;SDS011;47465;43.094;12.434;2023-04-24T09:38:57;13.75;;;6.05;;
61572;SDS011;47465;43.094;12.434;2023-04-24T09:41:24;10.57;;;5.55;;
61572;SDS011;47465;43.094;12.434;2023-04-24T09:43:53;12.00;;;5.20;;
61572;SDS011;47465;43.094;12.434;2023-04-24T09:46:20;10.48;;;5.30;;
61572;SDS011;47465;43.094;12.434;2023-04-24T09:48:56;10.25;;;4.93;;
61572;SDS011;47465;43.094;12.434;2023-04-24T09:51:35;9.88;;;5.63;;
61572;SDS011;47465;43.094;12.434;2023-04-24T09:54:03;8.93;;;4.93;;
61572;SDS011;47465;43.094;12.434;2023-04-24T09:56:32;8.32;;;5.30;;
61572;SDS011;47465;43.094;12.434;2023-04-24T09:59:04;10.85;;;5.10;;
61572;SDS011;47465;43.094;12.434;2023-04-24T10:01:30;8.25;;;4.72;;
61572;SDS011;47465;43.094;12.434;2023-04-24T10:03:57;6.40;;;3.72;;
61572;SDS011;47465;43.094;12.434;2023-04-24T10:06:23;8.07;;;4.10;;
61572;SDS011;47465;43.094;12.434;2023-04-24T10:08:58;8.65;;;4.20;;
61572;SDS011;47465;43.094;12.434;2023-04-24T10:11:25;9.93;;;3.83;;
61572;SDS011;47465;43.094;12.434;2023-04-24T10:13:52;6.95;;;3.60;;
61572;SDS011;47465;43.094;12.434;2023-04-24T10:16:19;8.27;;;3.90;;
61572;SDS011;47465;43.094;12.434;2023-04-24T10:18:46;6.65;;;3.50;;
61572;SDS011;47465;43.094;12.434;2023-04-24T10:21:14;8.55;;;4.43;;
61572;SDS011;47465;43.094;12.434;2023-04-24T10:23:40;7.22;;;3.50;;
61572;SDS011;47465;43.094;12.434;2023-04-24T10:26:09;6.47;;;3.55;;
61572;SDS011;47465;43.094;12.434;2023-04-24T10:28:35;7.90;;;3.90;;
61572;SDS011;47465;43.094;12.434;2023-04-24T10:31:01;7.35;;;3.70;;
61572;SDS011;47465;43.094;12.434;2023-04-24T10:33:27;6.88;;;3.50;;
61572;SDS011;47465;43.094;12.434;2023-04-24T10:35:55;8.00;;;3.70;;
61572;SDS011;47465;43.094;12.434;2023-04-24T10:38:24;7.30;;;4.28;;
61572;SDS011;47465;43.094;12.434;2023-04-24T10:40:54;8.30;;;3.72;;
61572;SDS011;47465;43.094;12.434;2023-04-24T10:43:33;8.95;;;4.10;;
61572;SDS011;47465;43.094;12.434;2023-04-24T10:46:00;7.37;;;3.20;;
61572;SDS011;47465;43.094;12.434;2023-04-24T10:48:27;7.07;;;3.33;;
61572;SDS011;47465;43.094;12.434;2023-04-24T10:50:53;4.97;;;2.92;;
61572;SDS011;47465;43.094;12.434;2023-04-24T10:53:19;6.05;;;3.00;;
61572;SDS011;47465;43.094;12.434;2023-04-24T10:55:48;6.15;;;2.80;;
61572;SDS011;47465;43.094;12.434;2023-04-24T10:58:16;6.55;;;2.78;;
61572;SDS011;47465;43.094;12.434;2023-04-24T11:00:44;4.93;;;2.85;;
61572;SDS011;47465;43.094;12.434;2023-04-24T11:03:24;4.80;;;2.30;;
61572;SDS011;47465;43.094;12.434;2023-04-24T11:05:53;4.40;;;2.10;;
61572;SDS011;47465;43.094;12.434;2023-04-24T11:08:24;4.88;;;2.30;;
61572;SDS011;47465;43.094;12.434;2023-04-24T11:10:59;3.95;;;2.10;;
61572;SDS011;47465;43.094;12.434;2023-04-24T11:13:27;2.90;;;1.60;;
61572;SDS011;47465;43.094;12.434;2023-04-24T11:16:16;5.55;;;1.90;;
61572;SDS011;47465;43.094;12.434;2023-04-24T11:18:49;2.63;;;1.63;;
61572;SDS011;47465;43.094;12.434;2023-04-24T11:21:18;2.17;;;1.50;;
61572;SDS011;47465;43.094;12.434;2023-04-24T11:23:44;3.38;;;1.65;;
61572;SDS011;47465;43.094;12.434;2023-04-24T11:26:11;4.60;;;1.60;;
61572;SDS011;47465;43.094;12.434;2023-04-24T11:28:43;2.70;;;1.42;;
61572;SDS011;47465;43.094;12.434;2023-04-24T11:34:09;4.63;;;1.50;;
61572;SDS011;47465;43.094;12.434;2023-04-24T11:36:37;2.53;;;1.50;;
61572;SDS011;47465;43.094;12.434;2023-04-24T11:39:03;3.90;;;1.70;;
61572;SDS011;47465;43.094;12.434;2023-04-24T11:41:30;3.35;;;1.80;;
61572;SDS011;47465;43.094;12.434;2023-04-24T11:43:55;6.50;;;1.55;;
61572;SDS011;47465;43.094;12.434;2023-04-24T11:46:22;2.22;;;1.50;;
61572;SDS011;47465;43.094;12.434;2023-04-24T11:48:49;3.42;;;1.70;;
61572;SDS011;47465;43.094;12.434;2023-04-24T11:51:15;4.45;;;2.25;;
61572;SDS011;47465;43.094;12.434;2023-04-24T11:53:41;3.78;;;1.67;;
61572;SDS011;47465;43.094;12.434;2023-04-24T11:56:08;3.65;;;1.60;;
61572;SDS011;47465;43.094;12.434;2023-04-24T11:58:34;3.97;;;1.50;;
61572;SDS011;47465;43.094;12.434;2023-04-24T12:01:01;4.25;;;1.50;;
61572;SDS011;47465;43.094;12.434;2023-04-24T12:03:27;7.72;;;1.60;;
61572;SDS011;47465;43.094;12.434;2023-04-24T12:05:54;4.05;;;1.75;;
61572;SDS011;47465;43.094;12.434;2023-04-24T12:08:30;3.55;;;1.50;;
61572;SDS011;47465;43.094;12.434;2023-04-24T12:10:57;3.28;;;1.50;;
61572;SDS011;47465;43.094;12.434;2023-04-24T12:13:25;3.25;;;1.50;;
61572;SDS011;47465;43.094;12.434;2023-04-24T12:15:51;4.80;;;1.55;;
61572;SDS011;47465;43.094;12.434;2023-04-24T12:18:17;3.65;;;1.73;;
61572;SDS011;47465;43.094;12.434;2023-04-24T12:20:43;2.90;;;1.50;;
61572;SDS011;47465;43.094;12.434;2023-04-24T12:23:10;7.15;;;1.75;;
61572;SDS011;47465;43.094;12.434;2023-04-24T12:25:38;3.22;;;1.63;;
61572;SDS011;47465;43.094;12.434;2023-04-24T12:28:11;4.45;;;1.70;;
61572;SDS011;47465;43.094;12.434;2023-04-24T12:30:39;4.40;;;1.52;;
61572;SDS011;47465;43.094;12.434;2023-04-24T12:33:06;3.95;;;1.40;;
61572;SDS011;47465;43.094;12.434;2023-04-24T12:35:32;5.78;;;1.80;;
61572;SDS011;47465;43.094;12.434;2023-04-24T12:38:05;4.82;;;1.60;;
61572;SDS011;47465;43.094;12.434;2023-04-24T12:40:32;5.78;;;1.83;;
61572;SDS011;47465;43.094;12.434;2023-04-24T12:42:58;3.83;;;1.60;;
61572;SDS011;47465;43.094;12.434;2023-04-24T12:45:24;4.93;;;1.80;;
61572;SDS011;47465;43.094;12.434;2023-04-24T12:47:53;4.53;;;1.67;;
61572;SDS011;47465;43.094;12.434;2023-04-24T12:50:19;4.32;;;1.70;;
61572;SDS011;47465;43.094;12.434;2023-04-24T12:52:45;2.72;;;1.60;;
61572;SDS011;47465;43.094;12.434;2023-04-24T12:55:11;6.53;;;1.80;;
61572;SDS011;47465;43.094;12.434;2023-04-24T12:57:39;3.40;;;1.70;;
61572;SDS011;47465;43.094;12.434;2023-04-24T13:00:06;4.73;;;1.63;;
61572;SDS011;47465;43.094;12.434;2023-04-24T13:02:33;7.63;;;1.77;;
61572;SDS011;47465;43.094;12.434;2023-04-24T13:05:00;4.13;;;1.50;;
61572;SDS011;47465;43.094;12.434;2023-04-24T13:07:26;6.60;;;1.77;;
61572;SDS011;47465;43.094;12.434;2023-04-24T13:09:52;6.45;;;1.80;;
61572;SDS011;47465;43.094;12.434;2023-04-24T13:12:20;5.35;;;1.80;;
61572;SDS011;47465;43.094;12.434;2023-04-24T13:14:47;5.68;;;1.92;;
61572;SDS011;47465;43.094;12.434;2023-04-24T13:17:13;5.95;;;1.70;;
61572;SDS011;47465;43.094;12.434;2023-04-24T13:19:40;6.05;;;1.67;;
61572;SDS011;47465;43.094;12.434;2023-04-24T13:22:08;4.80;;;1.80;;
61572;SDS011;47465;43.094;12.434;2023-04-24T13:24:35;4.60;;;2.00;;
61572;SDS011;47465;43.094;12.434;2023-04-24T13:27:01;6.93;;;1.70;;
61572;SDS011;47465;43.094;12.434;2023-04-24T13:29:27;5.28;;;1.77;;
61572;SDS011;47465;43.094;12.434;2023-04-24T13:31:55;8.00;;;2.08;;
61572;SDS011;47465;43.094;12.434;2023-04-24T13:34:21;3.47;;;1.77;;
61572;SDS011;47465;43.094;12.434;2023-04-24T13:36:47;5.90;;;1.90;;
61572;SDS011;47465;43.094;12.434;2023-04-24T13:39:14;6.50;;;2.30;;
61572;SDS011;47465;43.094;12.434;2023-04-24T13:41:42;8.80;;;2.03;;
61572;SDS011;47465;43.094;12.434;2023-04-24T13:44:08;6.20;;;1.98;;
61572;SDS011;47465;43.094;12.434;2023-04-24T13:46:34;4.32;;;1.70;;
61572;SDS011;47465;43.094;12.434;2023-04-24T13:49:02;4.28;;;1.73;;
61572;SDS011;47465;43.094;12.434;2023-04-24T13:51:30;5.55;;;2.30;;
61572;SDS011;47465;43.094;12.434;2023-04-24T13:53:56;6.70;;;2.28;;
61572;SDS011;47465;43.094;12.434;2023-04-24T13:56:22;5.20;;;2.00;;
61572;SDS011;47465;43.094;12.434;2023-04-24T13:58:48;5.95;;;1.80;;
61572;SDS011;47465;43.094;12.434;2023-04-24T14:01:14;6.60;;;2.67;;
61572;SDS011;47465;43.094;12.434;2023-04-24T14:03:41;5.75;;;2.08;;
61572;SDS011;47465;43.094;12.434;2023-04-24T14:06:08;7.55;;;2.05;;
61572;SDS011;47465;43.094;12.434;2023-04-24T14:08:34;9.57;;;2.13;;
61572;SDS011;47465;43.094;12.434;2023-04-24T14:11:00;5.63;;;2.10;;
61572;SDS011;47465;43.094;12.434;2023-04-24T14:13:26;8.68;;;2.03;;
61572;SDS011;47465;43.094;12.434;2023-04-24T14:15:52;8.02;;;2.42;;
61572;SDS011;47465;43.094;12.434;2023-04-24T14:18:18;6.95;;;2.30;;
61572;SDS011;47465;43.094;12.434;2023-04-24T14:20:44;9.25;;;2.67;;
61572;SDS011;47465;43.094;12.434;2023-04-24T14:23:12;5.45;;;2.17;;
61572;SDS011;47465;43.094;12.434;2023-04-24T14:25:38;10.48;;;1.90;;
61572;SDS011;47465;43.094;12.434;2023-04-24T14:28:05;4.95;;;2.00;;
61572;SDS011;47465;43.094;12.434;2023-04-24T14:30:31;5.38;;;2.05;;
61572;SDS011;47465;43.094;12.434;2023-04-24T14:32:57;9.05;;;2.30;;